Time;durP1;ratioP1;P1;durP2;ratioP2;P2;SDS_P1;SDS_P2;PMS_P1;PMS_P2;Temp;Humidity;BMP_temperature;BMP_pressure;BME280_temperature;BME280_humidity;BME280_pressure;Samples;Min_cycle;Max_cycle;Signal;HPM_P1;HPM_P2
2022/06/15 00:01:36;;;;;;;3.55;3.15;;;;;;;20.44;83.01;98445.75;4995758;28;20178;-54
2022/06/15 00:04:03;;;;;;;3.40;1.90;;;;;;;20.30;82.90;98451.66;4994385;28;20257;-54
2022/06/15 00:06:31;;;;;;;2.33;1.95;;;;;;;20.32;84.20;98444.44;4995428;28;20175;-54
2022/06/15 00:08:59;;;;;;;2.17;2.08;;;;;;;20.21;83.82;98443.94;4995135;28;20202;-53
2022/06/15 00:11:28;;;;;;;2.45;1.90;;;;;;;20.30;83.36;98442.94;4995309;28;20175;-54
2022/06/15 00:13:56;;;;;;;2.20;2.10;;;;;;;20.27;83.15;98433.59;4995223;28;20290;-54
2022/06/15 00:16:22;;;;;;;2.60;2.40;;;;;;;20.32;81.76;98433.09;4994979;28;20182;-53
2022/06/15 00:18:48;;;;;;;2.83;2.42;;;;;;;20.45;81.88;98446.56;4995206;28;20183;-54
2022/06/15 00:21:16;;;;;;;4.38;2.13;;;;;;;20.41;84.59;98440.00;4994916;28;20253;-54
2022/06/15 00:23:42;;;;;;;3.25;2.30;;;;;;;20.37;85.70;98438.66;4993592;28;20214;-53
2022/06/15 00:26:08;;;;;;;4.97;1.88;;;;;;;20.28;82.75;98429.16;4994834;28;20654;-54
2022/06/15 00:28:34;;;;;;;2.25;1.85;;;;;;;20.32;82.13;98433.09;4995048;28;20717;-53
2022/06/15 00:31:00;;;;;;;2.47;2.25;;;;;;;20.35;82.74;98432.78;4994761;28;20183;-53
2022/06/15 00:33:27;;;;;;;4.85;3.10;;;;;;;20.32;86.84;98426.03;4994658;28;20709;-53
2022/06/15 00:35:58;;;;;;;2.65;2.55;;;;;;;20.18;88.79;98433.75;4994607;28;20668;-53
2022/06/15 00:38:32;;;;;;;2.83;2.60;;;;;;;20.07;88.36;98437.53;4994612;28;20167;-53
2022/06/15 00:40:58;;;;;;;8.05;2.38;;;;;;;20.09;86.68;98447.88;4994667;28;20206;-53
2022/06/15 00:43:49;;;;;;;1.80;1.70;;;;;;;20.10;83.99;98446.91;4994513;28;20182;-53
2022/06/15 00:46:37;;;;;;;4.53;1.92;;;;;;;20.11;84.10;98453.81;4994135;28;20217;-53
2022/06/15 00:49:06;;;;;;;6.40;2.47;;;;;;;20.21;85.18;98436.03;4993965;28;20213;-53
2022/06/15 00:51:31;;;;;;;2.40;2.13;;;;;;;20.26;86.54;98437.22;4994350;28;20211;-53
2022/06/15 00:53:59;;;;;;;3.67;2.63;;;;;;;20.03;84.64;98438.81;4994263;28;20707;-53
2022/06/15 00:56:27;;;;;;;6.00;2.30;;;;;;;20.01;85.62;98442.59;4994414;28;20214;-54
2022/06/15 00:58:57;;;;;;;5.03;2.15;;;;;;;19.95;85.07;98437.97;4994437;28;20261;-54
2022/06/15 01:01:23;;;;;;;2.33;1.98;;;;;;;19.89;84.50;98428.97;4994116;28;20190;-54
2022/06/15 01:03:51;;;;;;;1.73;1.63;;;;;;;19.95;82.73;98427.47;4993898;28;20219;-54
2022/06/15 01:06:45;;;;;;;2.58;2.28;;;;;;;20.05;82.77;98433.41;4994263;28;20660;-53
2022/06/15 01:09:17;;;;;;;3.55;2.40;;;;;;;20.09;83.83;98425.06;4994139;28;20183;-53
2022/06/15 01:11:58;;;;;;;2.67;2.22;;;;;;;20.10;84.88;98423.25;4994008;28;20183;-54
2022/06/15 01:14:32;;;;;;;5.40;2.35;;;;;;;20.13;84.54;98418.50;4993868;28;20234;-53
2022/06/15 01:16:57;;;;;;;3.00;2.35;;;;;;;20.17;84.44;98416.34;4994154;28;20254;-54
2022/06/15 01:20:00;;;;;;;4.78;2.00;;;;;;;20.11;84.70;98419.66;4994352;28;20262;-53
2022/06/15 01:22:34;;;;;;;2.88;1.98;;;;;;;20.07;82.54;98421.78;4994017;28;20183;-54
2022/06/15 01:25:21;;;;;;;6.22;1.90;;;;;;;20.00;83.97;98425.19;4993931;28;20198;-54
2022/06/15 01:28:05;;;;;;;2.58;2.30;;;;;;;20.04;84.15;98426.50;4994055;28;20731;-54
2022/06/15 01:30:51;;;;;;;4.82;2.10;;;;;;;20.06;86.12;98424.53;4993758;28;20259;-54
2022/06/15 01:33:39;;;;;;;3.08;2.22;;;;;;;20.07;83.08;98427.03;4993691;28;20246;-54
2022/06/15 01:36:13;;;;;;;5.72;2.25;;;;;;;20.19;83.02;98417.00;4993416;28;20183;-54
2022/06/15 01:39:15;;;;;;;2.45;2.00;;;;;;;20.08;83.75;98422.59;4993692;28;20189;-54
2022/06/15 01:41:45;;;;;;;2.63;2.42;;;;;;;20.08;83.64;98423.41;4992337;28;20194;-54
2022/06/15 01:44:31;;;;;;;3.63;2.13;;;;;;;20.07;83.35;98415.69;4993611;28;20665;-54
2022/06/15 01:47:01;;;;;;;2.88;2.40;;;;;;;20.03;83.82;98419.59;4993288;28;20628;-54
2022/06/15 01:49:35;;;;;;;2.03;1.92;;;;;;;20.06;83.19;98421.91;4993595;28;20210;-54
2022/06/15 01:52:03;;;;;;;2.65;2.22;;;;;;;20.08;83.94;98425.22;4993481;28;20306;-54
2022/06/15 01:54:30;;;;;;;6.50;2.40;;;;;;;19.93;85.31;98430.25;4993482;28;20214;-54
2022/06/15 01:56:57;;;;;;;4.82;2.15;;;;;;;19.87;83.13;98435.34;4993488;28;20652;-54
2022/06/15 01:59:29;;;;;;;2.00;1.80;;;;;;;19.81;83.48;98439.44;4993289;28;20179;-54
2022/06/15 02:02:25;;;;;;;3.92;2.33;;;;;;;19.78;84.16;98445.03;4993383;28;20190;-54
2022/06/15 02:05:13;;;;;;;3.20;2.78;;;;;;;19.71;84.57;98451.06;4993130;28;20199;-54
2022/06/15 02:07:50;;;;;;;4.18;2.55;;;;;;;19.64;84.98;98445.63;4993299;28;20171;-54
2022/06/15 02:10:25;;;;;;;3.15;2.08;;;;;;;19.67;86.38;98445.31;4993166;28;20262;-54
2022/06/15 02:13:29;;;;;;;2.78;1.98;;;;;;;19.72;85.47;98443.03;4992913;28;20195;-54
2022/06/15 02:16:02;;;;;;;8.00;2.53;;;;;;;19.70;85.87;98442.38;4993158;28;20210;-53
2022/06/15 02:18:28;;;;;;;3.20;2.55;;;;;;;19.65;86.49;98446.47;4993430;28;20589;-54
2022/06/15 02:21:00;;;;;;;2.92;2.60;;;;;;;19.51;87.50;98444.44;4991592;28;20202;-54
2022/06/15 02:23:27;;;;;;;3.40;2.50;;;;;;;19.51;87.28;98447.06;4992900;28;20214;-54
2022/06/15 02:25:54;;;;;;;2.45;2.25;;;;;;;19.55;86.93;98444.00;4992840;28;20179;-54
2022/06/15 02:28:26;;;;;;;3.00;2.00;;;;;;;19.41;87.70;98452.47;4992744;28;20183;-53
2022/06/15 02:30:51;;;;;;;2.70;2.50;;;;;;;19.52;86.82;98456.63;4992740;28;20164;-53
2022/06/15 02:33:27;;;;;;;2.67;2.47;;;;;;;19.37;88.11;98468.69;4992634;28;20207;-54
2022/06/15 02:35:53;;;;;;;3.55;2.40;;;;;;;19.40;86.01;98465.75;5007747;28;20269;-54
2022/06/15 02:38:18;;;;;;;5.07;2.33;;;;;;;19.45;86.78;98459.03;4992800;28;20171;-54
2022/06/15 02:40:44;;;;;;;2.60;2.40;;;;;;;19.56;84.90;98465.78;4992894;28;20564;-54
2022/06/15 02:43:11;;;;;;;6.25;2.47;;;;;;;19.58;84.99;98471.72;4992657;28;20559;-54
2022/06/15 02:45:39;;;;;;;4.85;2.60;;;;;;;19.61;84.87;98474.03;4992610;28;20186;-54
2022/06/15 02:48:07;;;;;;;1.95;1.85;;;;;;;19.56;87.18;98476.28;4992560;28;20659;-54
2022/06/15 02:50:41;;;;;;;3.75;2.47;;;;;;;19.69;83.92;98479.31;4992606;28;20206;-54
2022/06/15 02:53:12;;;;;;;2.65;2.10;;;;;;;19.71;83.29;98483.38;4992957;28;20690;-54
2022/06/15 02:55:38;;;;;;;2.40;2.20;;;;;;;19.79;81.56;98493.09;4992794;28;20167;-54
2022/06/15 02:58:08;;;;;;;3.10;2.03;;;;;;;19.78;82.93;98488.84;4992744;28;20175;-54
2022/06/15 03:00:35;;;;;;;4.63;2.47;;;;;;;19.84;83.51;98496.91;5007532;28;20171;-54
2022/06/15 03:03:00;;;;;;;2.47;2.28;;;;;;;19.90;83.82;98495.44;4992351;28;20194;-54
2022/06/15 03:05:26;;;;;;;2.90;2.25;;;;;;;19.84;84.85;98493.44;4992362;28;20199;-54
2022/06/15 03:07:51;;;;;;;3.08;2.88;;;;;;;19.85;85.34;98495.09;4992668;28;20183;-54
2022/06/15 03:10:17;;;;;;;2.30;2.20;;;;;;;19.89;85.72;98494.63;4993038;28;20191;-54
2022/06/15 03:12:42;;;;;;;2.40;2.30;;;;;;;19.97;83.76;98499.03;4996090;28;20669;-54
2022/06/15 03:15:10;;;;;;;2.65;2.40;;;;;;;19.98;83.38;98498.88;4996145;28;20179;-54
2022/06/15 03:17:36;;;;;;;3.33;2.25;;;;;;;19.88;82.83;98505.28;4996363;28;20179;-54
2022/06/15 03:20:02;;;;;;;3.15;2.30;;;;;;;19.81;82.23;98505.09;4996203;28;20211;-54
2022/06/15 03:22:27;;;;;;;4.07;2.22;;;;;;;19.72;82.62;98511.31;4996018;28;20199;-54
2022/06/15 03:24:52;;;;;;;4.95;2.92;;;;;;;19.73;83.47;98514.75;4995936;28;20258;-54
2022/06/15 03:27:18;;;;;;;2.70;2.50;;;;;;;19.70;83.53;98507.19;4995896;28;20660;-54
2022/06/15 03:29:45;;;;;;;2.90;2.50;;;;;;;19.57;84.56;98520.75;4995875;28;20202;-54
2022/06/15 03:32:15;;;;;;;2.47;2.28;;;;;;;19.59;85.92;98512.75;4996021;28;20249;-54
2022/06/15 03:34:41;;;;;;;2.40;2.30;;;;;;;19.56;85.86;98520.91;4996067;28;20189;-54
2022/06/15 03:37:06;;;;;;;4.15;2.55;;;;;;;19.53;85.93;98516.81;4995744;28;20648;-54
2022/06/15 03:39:32;;;;;;;3.97;2.60;;;;;;;19.62;86.64;98520.28;4995693;28;20183;-54
2022/06/15 03:42:18;;;;;;;5.22;3.22;;;;;;;19.44;90.31;98517.78;4995824;28;20251;-54
2022/06/15 03:44:44;;;;;;;3.83;3.20;;;;;;;19.48;90.65;98513.81;4995617;28;20697;-53
2022/06/15 03:47:17;;;;;;;4.53;2.90;;;;;;;19.63;89.24;98519.28;4995906;28;20206;-54
2022/06/15 03:49:48;;;;;;;4.43;2.55;;;;;;;19.73;87.95;98506.88;4995522;28;20167;-54
2022/06/15 03:52:14;;;;;;;2.95;2.40;;;;;;;19.81;86.98;98512.97;4995649;28;20198;-54
2022/06/15 03:54:40;;;;;;;2.55;2.10;;;;;;;19.83;86.88;98518.06;4995438;28;20179;-54
2022/06/15 03:57:05;;;;;;;3.78;2.72;;;;;;;19.90;87.83;98516.44;4995549;28;20259;-54
2022/06/15 03:59:31;;;;;;;8.23;2.83;;;;;;;20.04;88.30;98511.38;4995299;28;20186;-54
2022/06/15 04:01:57;;;;;;;3.05;2.40;;;;;;;20.12;87.80;98521.94;4995258;28;20702;-54
2022/06/15 04:04:22;;;;;;;2.80;2.60;;;;;;;20.18;85.98;98526.56;4995048;28;20233;-53
2022/06/15 04:06:49;;;;;;;4.68;2.65;;;;;;;20.21;85.75;98520.97;4995211;28;20176;-53
2022/06/15 04:09:21;;;;;;;2.85;2.65;;;;;;;20.30;85.51;98519.16;4995435;28;20229;-54
2022/06/15 04:11:59;;;;;;;3.42;2.42;;;;;;;20.39;83.72;98515.56;4995384;28;20201;-53
2022/06/15 04:14:26;;;;;;;6.28;2.90;;;;;;;20.50;80.16;98520.47;4995559;28;20548;-54
2022/06/15 04:16:54;;;;;;;2.47;2.28;;;;;;;20.58;78.55;98518.69;4995042;28;20179;-54
2022/06/15 04:19:25;;;;;;;4.30;2.40;;;;;;;20.69;79.13;98520.16;4994948;28;20662;-53
2022/06/15 04:21:50;;;;;;;2.30;2.10;;;;;;;20.79;79.58;98515.53;4994439;28;20163;-54
2022/06/15 04:24:16;;;;;;;2.35;2.17;;;;;;;20.90;79.71;98515.22;4994391;28;20173;-54
2022/06/15 04:26:44;;;;;;;2.60;2.20;;;;;;;21.04;79.41;98527.72;4995121;28;20186;-54
2022/06/15 04:29:10;;;;;;;2.95;2.65;;;;;;;21.14;79.55;98521.28;4994816;28;20187;-54
2022/06/15 04:31:38;;;;;;;2.97;2.50;;;;;;;21.22;80.02;98521.25;4995031;28;20171;-54
2022/06/15 04:34:04;;;;;;;5.55;2.30;;;;;;;21.30;79.54;98518.59;4994606;28;20205;-54
2022/06/15 04:36:30;;;;;;;10.38;2.35;;;;;;;21.41;78.93;98526.13;4994608;28;20327;-54
2022/06/15 04:38:56;;;;;;;3.25;2.25;;;;;;;21.55;77.87;98521.94;4994888;28;20270;-54
2022/06/15 04:41:21;;;;;;;6.57;2.63;;;;;;;21.54;73.75;98521.16;4994586;28;20193;-54
2022/06/15 04:43:46;;;;;;;6.10;2.90;;;;;;;21.58;75.55;98521.63;4994532;28;20274;-54
2022/06/15 04:46:12;;;;;;;5.32;2.30;;;;;;;21.62;75.98;98534.28;4994760;28;20636;-54
2022/06/15 04:48:37;;;;;;;4.38;2.58;;;;;;;21.55;72.71;98541.22;4994353;28;20171;-54
2022/06/15 04:51:15;;;;;;;3.28;2.25;;;;;;;21.58;72.06;98534.78;4994398;28;20203;-54
2022/06/15 04:53:41;;;;;;;3.35;2.40;;;;;;;21.65;71.97;98543.63;4994563;28;20187;-54
2022/06/15 04:56:07;;;;;;;2.70;2.03;;;;;;;21.63;71.89;98543.81;4994567;28;20225;-54
2022/06/15 04:58:33;;;;;;;3.90;2.83;;;;;;;21.59;71.76;98544.31;4994237;28;20257;-54
2022/06/15 05:00:59;;;;;;;3.70;3.40;;;;;;;21.75;73.99;98544.31;4994105;28;20178;-54
2022/06/15 05:03:24;;;;;;;4.72;3.03;;;;;;;21.69;75.43;98542.34;4993961;28;20779;-54
2022/06/15 05:05:56;;;;;;;3.90;2.90;;;;;;;21.53;74.82;98534.47;4994119;28;20254;-54
2022/06/15 05:08:22;;;;;;;2.83;2.63;;;;;;;21.67;74.50;98534.63;4994093;28;20246;-54
2022/06/15 05:10:48;;;;;;;4.93;2.20;;;;;;;21.68;74.70;98528.34;4992761;28;20250;-54
2022/06/15 05:13:13;;;;;;;3.03;2.00;;;;;;;21.84;70.79;98537.97;4993823;28;20184;-54
2022/06/15 05:15:38;;;;;;;2.63;2.28;;;;;;;21.92;72.46;98532.69;4993931;28;20183;-55
2022/06/15 05:18:05;;;;;;;2.63;2.42;;;;;;;21.92;73.49;98535.31;4993842;28;20171;-55
2022/06/15 05:20:31;;;;;;;7.78;2.60;;;;;;;21.99;73.78;98531.00;4993816;28;20186;-55
2022/06/15 05:22:56;;;;;;;3.25;2.55;;;;;;;22.02;73.65;98538.56;4993806;28;20167;-54
2022/06/15 05:25:22;;;;;;;4.40;2.45;;;;;;;22.04;73.01;98531.31;4993701;28;20171;-54
2022/06/15 05:27:48;;;;;;;3.25;1.90;;;;;;;22.13;72.94;98533.72;4993917;28;20181;-54
2022/06/15 05:30:14;;;;;;;2.67;2.47;;;;;;;22.21;73.26;98536.28;4993627;28;20183;-54
2022/06/15 05:32:39;;;;;;;2.53;2.33;;;;;;;22.25;71.58;98537.59;5008572;28;20341;-54
2022/06/15 05:35:05;;;;;;;4.40;2.33;;;;;;;22.34;67.63;98541.00;4993524;28;20175;-54
2022/06/15 05:37:32;;;;;;;6.13;2.33;;;;;;;22.42;67.37;98543.56;4993778;28;20175;-54
2022/06/15 05:39:58;;;;;;;2.35;2.15;;;;;;;22.42;66.51;98548.84;4993446;28;20182;-54
2022/06/15 05:42:27;;;;;;;2.67;2.00;;;;;;;22.39;60.43;98543.94;4993423;28;20258;-54
2022/06/15 05:44:53;;;;;;;3.45;1.95;;;;;;;22.52;61.23;98549.47;4993275;28;20202;-54
2022/06/15 05:47:19;;;;;;;4.25;1.67;;;;;;;22.68;55.54;98552.78;4993308;28;20569;-54
2022/06/15 05:49:45;;;;;;;1.70;1.60;;;;;;;22.77;56.64;98570.19;4993461;28;20175;-54
2022/06/15 05:52:11;;;;;;;5.50;1.70;;;;;;;22.93;51.57;98558.69;4993268;28;20238;-54
2022/06/15 05:54:36;;;;;;;2.03;1.83;;;;;;;23.09;51.12;98561.19;4993453;28;20293;-54
2022/06/15 05:57:08;;;;;;;3.88;1.70;;;;;;;23.23;49.22;98552.47;4993445;28;20186;-54
2022/06/15 05:59:33;;;;;;;4.93;1.65;;;;;;;23.31;48.92;98552.41;4993400;28;20174;-54
2022/06/15 06:01:59;;;;;;;3.08;1.80;;;;;;;23.43;48.76;98558.88;4993480;28;20175;-54
2022/06/15 06:04:24;;;;;;;2.38;1.48;;;;;;;23.48;48.04;98556.50;4992909;28;20265;-54
2022/06/15 06:06:50;;;;;;;2.47;1.63;;;;;;;23.52;48.38;98566.53;5008129;28;20178;-54
2022/06/15 06:09:15;;;;;;;4.63;1.65;;;;;;;23.57;48.28;98560.69;4992961;28;20648;-55
2022/06/15 06:11:41;;;;;;;4.03;1.80;;;;;;;23.65;47.37;98555.31;5007962;28;20234;-52
2022/06/15 06:14:08;;;;;;;2.38;1.80;;;;;;;23.65;47.79;98560.59;4992866;28;20187;-52
2022/06/15 06:16:33;;;;;;;2.42;1.90;;;;;;;23.63;47.79;98558.13;4992799;28;20201;-52
2022/06/15 06:18:59;;;;;;;2.28;1.65;;;;;;;23.65;47.80;98565.88;4993120;28;20179;-52
2022/06/15 06:21:24;;;;;;;1.77;1.67;;;;;;;23.67;47.86;98572.63;4993536;28;20171;-53
2022/06/15 06:23:49;;;;;;;1.60;1.50;;;;;;;23.72;47.32;98572.06;4992742;28;20702;-52
2022/06/15 06:26:18;;;;;;;1.73;1.63;;;;;;;23.77;48.41;98569.72;4991545;28;20185;-52
2022/06/15 06:28:44;;;;;;;5.30;2.10;;;;;;;23.81;48.08;98569.94;4992732;28;20298;-52
2022/06/15 06:31:11;;;;;;;1.67;1.58;;;;;;;23.75;46.62;98572.53;4992716;28;20167;-52
2022/06/15 06:33:37;;;;;;;4.32;1.95;;;;;;;23.80;48.43;98567.50;4992591;28;20195;-54
2022/06/15 06:36:11;;;;;;;4.78;1.88;;;;;;;23.89;48.06;98573.56;4992898;28;20170;-53
2022/06/15 06:38:37;;;;;;;4.00;1.85;;;;;;;23.90;46.00;98575.19;4992815;28;20182;-54
2022/06/15 06:41:03;;;;;;;2.03;1.55;;;;;;;23.81;45.25;98569.94;4992822;28;20661;-54
2022/06/15 06:43:28;;;;;;;2.60;1.55;;;;;;;23.83;46.37;98570.59;4992849;28;20178;-54
2022/06/15 06:45:53;;;;;;;2.75;1.65;;;;;;;23.85;44.91;98576.50;4993648;28;20233;-54
2022/06/15 06:48:19;;;;;;;1.73;1.40;;;;;;;23.83;44.83;98569.78;4996624;28;20202;-53
2022/06/15 06:50:44;;;;;;;4.47;1.77;;;;;;;23.85;44.71;98583.63;4996611;28;20556;-54
2022/06/15 06:53:12;;;;;;;2.80;2.05;;;;;;;23.83;44.74;98575.06;4996488;28;20583;-54
2022/06/15 06:55:38;;;;;;;2.15;1.90;;;;;;;23.90;45.16;98583.13;4997006;28;20721;-54
2022/06/15 06:58:04;;;;;;;2.63;1.80;;;;;;;23.96;43.88;98585.03;4996469;28;20175;-53
2022/06/15 07:00:33;;;;;;;1.80;1.67;;;;;;;24.00;44.76;98583.66;4996348;28;20611;-54
2022/06/15 07:03:00;;;;;;;5.18;1.95;;;;;;;24.01;44.08;98580.00;4996145;28;20194;-53
2022/06/15 07:05:27;;;;;;;5.35;1.80;;;;;;;23.97;43.76;98584.84;4996236;28;20203;-53
2022/06/15 07:07:52;;;;;;;1.60;1.48;;;;;;;23.89;43.71;98578.84;4996304;28;20179;-54
2022/06/15 07:10:18;;;;;;;1.67;1.58;;;;;;;23.92;44.06;98580.09;4996516;28;20179;-54
2022/06/15 07:12:44;;;;;;;4.40;1.80;;;;;;;23.90;43.26;98575.19;5011175;28;20737;-53
2022/06/15 07:15:12;;;;;;;3.20;1.70;;;;;;;23.97;43.60;98591.94;4996427;28;20190;-53
2022/06/15 07:17:39;;;;;;;2.85;1.77;;;;;;;24.02;42.38;98581.63;4996222;28;20171;-53
2022/06/15 07:20:05;;;;;;;2.47;1.73;;;;;;;24.04;42.96;98586.53;4996334;28;20329;-53
2022/06/15 07:22:31;;;;;;;3.67;1.50;;;;;;;24.12;42.30;98579.53;4995473;28;20175;-54
2022/06/15 07:24:57;;;;;;;1.65;1.52;;;;;;;24.17;43.85;98584.06;4994804;28;20186;-54
2022/06/15 07:27:23;;;;;;;2.45;1.70;;;;;;;24.27;43.74;98584.56;4995923;28;20314;-54
2022/06/15 07:29:49;;;;;;;1.50;1.40;;;;;;;24.32;42.79;98586.69;4995855;28;20700;-54
2022/06/15 07:32:16;;;;;;;3.03;1.65;;;;;;;24.41;42.67;98590.81;4995870;28;20179;-54
2022/06/15 07:34:41;;;;;;;3.35;1.70;;;;;;;24.50;42.63;98587.88;4995980;28;20199;-55
2022/06/15 07:37:07;;;;;;;5.22;1.88;;;;;;;24.54;41.58;98590.97;4994440;28;20186;-55
2022/06/15 07:39:34;;;;;;;2.17;1.70;;;;;;;24.57;42.17;98590.63;4995632;28;20640;-53
2022/06/15 07:42:00;;;;;;;4.70;2.83;;;;;;;24.61;42.38;98587.41;4995903;28;20183;-53
2022/06/15 07:44:27;;;;;;;5.32;1.90;;;;;;;24.73;41.76;98588.53;4995460;28;20254;-53
2022/06/15 07:49:54;;;;;;;5.28;1.90;;;;;;;24.75;42.99;98583.91;4995584;28;20179;-53
2022/06/15 07:49:56;;;;;;;3.63;1.33;;;;;;;24.87;41.16;98587.66;4995510;28;20178;-52
2022/06/15 07:52:32;;;;;;;3.00;1.50;;;;;;;24.95;42.39;98592.81;5010496;28;20583;-52
2022/06/15 07:54:58;;;;;;;1.65;1.55;;;;;;;25.05;42.48;98590.66;4995673;28;20155;-52
2022/06/15 07:57:24;;;;;;;2.55;1.73;;;;;;;25.13;41.82;98585.22;4995399;28;20194;-52
2022/06/15 07:59:50;;;;;;;2.25;1.50;;;;;;;25.14;38.58;98600.09;4995274;28;20198;-52
2022/06/15 08:02:16;;;;;;;2.00;1.83;;;;;;;25.07;38.22;98601.88;4995197;28;20175;-53
2022/06/15 08:04:41;;;;;;;1.67;1.58;;;;;;;25.05;38.47;98595.97;4995347;28;20577;-53
2022/06/15 08:07:09;;;;;;;1.77;1.42;;;;;;;25.02;37.89;98596.31;4995231;28;20171;-52
2022/06/15 08:09:35;;;;;;;2.50;1.33;;;;;;;25.05;38.63;98595.13;4995150;28;20668;-53
2022/06/15 08:12:14;;;;;;;2.13;1.45;;;;;;;25.06;39.25;98587.00;4995344;28;20217;-52
2022/06/15 08:14:52;;;;;;;4.25;1.58;;;;;;;25.14;39.00;98592.16;4995293;28;20195;-52
2022/06/15 08:17:26;;;;;;;3.45;1.65;;;;;;;25.18;38.97;98596.06;4995311;28;20167;-52
2022/06/15 08:19:56;;;;;;;2.22;1.38;;;;;;;25.23;38.59;98593.66;4995211;28;20226;-52
2022/06/15 08:22:22;;;;;;;1.60;1.50;;;;;;;25.33;39.82;98593.34;4995171;28;20258;-52
2022/06/15 08:24:48;;;;;;;3.05;1.35;;;;;;;25.37;38.67;98592.75;4994663;28;20186;-53
2022/06/15 08:27:17;;;;;;;1.60;1.50;;;;;;;25.40;39.81;98592.38;5009933;28;20648;-52
2022/06/15 08:29:44;;;;;;;2.45;1.40;;;;;;;25.42;38.72;98595.66;4994707;28;20203;-53
2022/06/15 08:32:10;;;;;;;1.65;1.30;;;;;;;25.39;38.24;98597.88;4994624;28;20183;-53
2022/06/15 08:34:37;;;;;;;3.63;1.70;;;;;;;25.47;39.26;98595.88;4994605;28;20667;-52
2022/06/15 08:37:08;;;;;;;1.63;1.52;;;;;;;25.52;39.87;98596.13;4994532;28;20210;-52
2022/06/15 08:39:35;;;;;;;2.10;1.70;;;;;;;25.58;37.34;98598.00;4994566;28;20194;-52
2022/06/15 08:42:28;;;;;;;3.08;1.35;;;;;;;25.57;36.98;98596.38;4994625;28;20179;-53
2022/06/15 08:45:05;;;;;;;3.78;1.60;;;;;;;25.58;38.24;98592.69;4983391;28;20211;-53
2022/06/15 08:47:52;;;;;;;1.77;1.50;;;;;;;25.64;37.77;98599.88;4994421;28;20163;-52
2022/06/15 08:50:40;;;;;;;3.80;1.67;;;;;;;25.70;38.60;98592.97;4994552;28;20181;-53
2022/06/15 08:53:15;;;;;;;3.22;1.65;;;;;;;25.81;38.41;98605.66;4993091;28;20203;-53
2022/06/15 08:55:59;;;;;;;6.80;1.77;;;;;;;25.87;38.29;98588.97;4994302;28;20225;-53
2022/06/15 08:59:00;;;;;;;2.22;1.35;;;;;;;25.95;38.91;98588.84;4994502;28;20598;-53
2022/06/15 09:01:29;;;;;;;3.05;1.42;;;;;;;25.97;37.86;98590.28;4994239;28;20166;-53
2022/06/15 09:04:01;;;;;;;1.27;1.20;;;;;;;25.97;36.95;98592.94;4993972;28;20215;-53
2022/06/15 09:06:35;;;;;;;2.50;1.65;;;;;;;25.98;38.52;98586.63;4994469;28;20162;-52
2022/06/15 09:09:06;;;;;;;2.58;1.60;;;;;;;26.05;38.05;98592.75;4993449;28;20174;-52
2022/06/15 09:15:12;;;;;;;2.13;1.58;;;;;;;26.18;36.74;98584.84;4993857;28;20622;-53
2022/06/15 09:17:39;;;;;;;1.55;1.45;;;;;;;26.28;37.48;98579.16;4993677;28;20266;-52
2022/06/15 09:20:23;;;;;;;1.65;1.55;;;;;;;26.33;36.63;98593.47;4994040;28;20177;-53
2022/06/15 09:22:56;;;;;;;6.22;1.42;;;;;;;26.30;37.03;98562.03;4993753;28;20632;-53
2022/06/15 09:25:30;;;;;;;1.60;1.50;;;;;;;26.44;36.22;98590.25;4993759;28;20163;-53
2022/06/15 09:28:05;;;;;;;1.67;1.40;;;;;;;26.44;35.68;98595.56;4993866;28;20170;-53
2022/06/15 09:30:33;;;;;;;4.32;1.73;;;;;;;26.42;36.78;98581.66;4993690;28;20166;-53
2022/06/15 09:33:05;;;;;;;3.83;1.58;;;;;;;26.44;37.50;98590.25;4993519;28;20757;-53
2022/06/15 09:35:50;;;;;;;2.67;1.67;;;;;;;26.50;37.26;98589.44;4993661;28;20691;-53
2022/06/15 09:38:16;;;;;;;2.22;1.40;;;;;;;26.65;35.84;98576.81;4993523;28;20163;-54
2022/06/15 09:40:47;;;;;;;4.18;1.48;;;;;;;26.78;36.59;98576.88;4993693;28;20175;-53
2022/06/15 09:43:25;;;;;;;5.10;1.60;;;;;;;26.86;36.91;98579.31;5008492;28;20611;-54
2022/06/15 09:46:01;;;;;;;2.08;1.52;;;;;;;26.99;36.53;98583.81;4993438;28;20163;-54
2022/06/15 09:48:48;;;;;;;1.38;1.17;;;;;;;27.00;35.12;98591.56;4992050;28;20644;-54
2022/06/15 09:51:32;;;;;;;2.25;1.63;;;;;;;27.10;35.93;98596.47;4993583;28;20302;-54
2022/06/15 09:54:42;;;;;;;2.40;1.60;;;;;;;27.24;35.07;98593.63;4993746;28;20640;-53
2022/06/15 09:57:09;;;;;;;5.07;1.50;;;;;;;27.37;35.68;98583.00;4992416;28;20214;-54
2022/06/15 09:59:34;;;;;;;2.05;1.45;;;;;;;27.46;35.52;98595.03;4993360;28;20644;-54
2022/06/15 10:02:04;;;;;;;1.77;1.20;;;;;;;27.49;34.16;98594.63;4993079;28;20241;-54
2022/06/15 10:04:32;;;;;;;5.35;1.83;;;;;;;27.56;34.88;98590.13;4992916;28;20709;-53
2022/06/15 10:07:06;;;;;;;1.52;1.10;;;;;;;27.63;34.44;98588.25;4993053;28;20171;-54
2022/06/15 10:09:38;;;;;;;2.42;1.50;;;;;;;27.74;35.96;98584.13;4993302;28;20163;-53
2022/06/15 10:15:15;;;;;;;3.15;1.20;;;;;;;27.96;32.89;98591.66;4992564;28;20171;-53
2022/06/15 10:17:46;;;;;;;1.58;1.38;;;;;;;28.02;32.97;98592.66;4993010;28;20175;-53
2022/06/15 10:20:32;;;;;;;2.75;1.48;;;;;;;28.09;33.94;98596.94;4992191;28;20261;-54
2022/06/15 10:23:01;;;;;;;3.08;1.42;;;;;;;28.01;34.10;98591.88;5007986;28;20198;-54
2022/06/15 10:25:35;;;;;;;1.40;1.25;;;;;;;28.14;34.05;98588.31;4992776;28;20175;-54
2022/06/15 10:28:20;;;;;;;2.97;1.70;;;;;;;28.27;34.10;98591.72;4992778;28;20234;-54
2022/06/15 10:31:01;;;;;;;2.53;1.50;;;;;;;28.42;32.61;98588.81;4992848;28;20221;-54
2022/06/15 10:33:42;;;;;;;2.33;1.40;;;;;;;28.46;32.27;98587.38;4992925;28;20191;-54
2022/06/15 10:36:31;;;;;;;2.05;1.73;;;;;;;28.51;31.82;98585.69;4993148;28;20698;-54
2022/06/15 10:39:05;;;;;;;5.10;1.70;;;;;;;28.59;32.96;98587.28;4993001;28;20190;-54
2022/06/15 10:41:46;;;;;;;2.38;1.80;;;;;;;28.69;33.53;98584.97;4992607;28;20171;-54
2022/06/15 10:44:18;;;;;;;2.10;2.00;;;;;;;28.95;33.76;98590.97;4992849;28;20201;-54
2022/06/15 10:46:57;;;;;;;2.55;1.73;;;;;;;29.18;32.55;98585.84;4992799;28;20167;-54
2022/06/15 10:49:24;;;;;;;2.28;1.60;;;;;;;29.30;31.59;98588.59;4992849;28;20178;-54
2022/06/15 10:51:51;;;;;;;2.45;1.50;;;;;;;29.51;31.93;98585.53;4992560;28;20229;-54
2022/06/15 10:54:16;;;;;;;1.95;1.70;;;;;;;29.74;30.89;98586.53;4992677;28;20234;-55
2022/06/15 11:02:20;;;;;;;2.13;1.50;;;;;;;29.86;29.73;98589.28;4992807;28;20197;-54
2022/06/15 11:04:46;;;;;;;2.92;1.52;;;;;;;29.86;30.08;98574.06;4992666;28;20203;-54
2022/06/15 11:07:32;;;;;;;4.07;1.70;;;;;;;30.09;30.53;98576.91;4992421;28;20171;-54
2022/06/15 11:09:58;;;;;;;2.50;1.67;;;;;;;30.27;29.43;98582.25;4992597;28;20254;-54
2022/06/15 11:12:26;;;;;;;2.80;1.52;;;;;;;30.54;29.92;98572.81;4992285;28;20244;-54
2022/06/15 11:15:03;;;;;;;2.88;1.65;;;;;;;30.62;29.47;98575.16;4992595;28;20201;-54
2022/06/15 11:20:22;;;;;;;3.03;1.58;;;;;;;30.91;29.78;98585.03;4992659;28;20222;-54
2022/06/15 11:22:51;;;;;;;4.38;2.17;;;;;;;31.09;30.05;98584.09;4992432;28;20187;-54
2022/06/15 11:25:20;;;;;;;2.35;1.60;;;;;;;31.31;30.34;98577.97;5007252;28;20572;-54
2022/06/15 11:27:59;;;;;;;3.35;1.55;;;;;;;31.53;29.03;98575.56;4992237;28;20179;-54
2022/06/15 11:30:30;;;;;;;2.00;1.83;;;;;;;31.45;29.77;98584.75;4992250;28;20246;-54
2022/06/15 11:33:01;;;;;;;2.10;1.65;;;;;;;31.52;29.57;98585.44;4994976;28;20191;-54
2022/06/15 11:35:41;;;;;;;2.78;1.50;;;;;;;31.53;28.49;98587.06;4995651;28;20187;-55
2022/06/15 11:38:38;;;;;;;4.60;1.80;;;;;;;31.64;28.34;98586.22;4996046;28;20526;-55
2022/06/15 11:41:29;;;;;;;4.07;1.65;;;;;;;31.60;28.23;98579.72;4996019;28;20279;-55
2022/06/15 11:43:57;;;;;;;3.92;1.75;;;;;;;31.60;28.72;98579.72;4980062;28;20191;-54
2022/06/15 11:46:38;;;;;;;1.63;1.42;;;;;;;31.65;27.75;98587.84;4995605;28;20183;-54
2022/06/15 11:49:22;;;;;;;4.13;1.60;;;;;;;31.87;27.43;98596.13;4996001;28;20171;-54
2022/06/15 11:52:04;;;;;;;1.85;1.40;;;;;;;31.98;27.91;98589.91;4995723;28;20756;-55
2022/06/15 11:54:48;;;;;;;4.60;1.90;;;;;;;32.18;28.11;98599.19;4995625;28;20261;-55
2022/06/15 11:57:29;;;;;;;3.28;1.60;;;;;;;32.11;28.63;98593.16;4995470;28;20167;-55
2022/06/15 12:00:20;;;;;;;3.25;1.55;;;;;;;31.86;28.68;98595.31;4995489;28;20179;-54
2022/06/15 12:03:12;;;;;;;1.85;1.60;;;;;;;31.54;29.22;98588.69;4995235;28;20192;-54
2022/06/15 12:05:42;;;;;;;1.52;1.42;;;;;;;31.69;30.02;98594.38;4995550;28;20175;-55
2022/06/15 12:08:24;;;;;;;4.28;1.73;;;;;;;31.98;30.23;98580.03;4995234;28;20180;-54